Tahlequah, OK

8:41 AM CDT on April 26, 2017 (GMT -0500)
Tahlequah Municipal

Weather History for KTQH - January, 2013

Change the Weather History Date:

Sunday, January 27, 2013

  Actual Average (KMKO) Record (KMKO)
Temperature  
Mean Temperature 50 °F -  
Max Temperature 57 °F 47 °F 71 °F (2015)
Min Temperature 44 °F 28 °F 12 °F (2004)
Degree Days  
Heating Degree Days 14    
Moisture  
Dew Point 47 °F    
Average Humidity 85    
Maximum Humidity 94    
Minimum Humidity 61    
Precipitation  
Precipitation 0.00 in - - ()
Sea Level Pressure  
Sea Level Pressure 30.01 in    
Wind  
Wind Speed 10 mph (SSE)    
Max Wind Speed 15 mph    
Max Gust Speed 23 mph    
Visibility 10 miles    
Events      
Averages and records for this station are not official NWS values.
T = Trace of Precipitation, MM = Missing Value Source: NWS Daily Summary

Daily Weather History Graph

Daily Weather History Graph

Search for Another Location

Airport or City:

Trip Planner

Search our weather history database for the weather conditions in past years. The results will help you decide how hot, cold, wet, or windy it might be!

Date:

Astronomy

Jan. 27, 2013 Rise Set
Actual Time 7:23 AM CST 5:42 PM CST
Civil Twilight 6:56 AM CST 6:09 PM CST
Nautical Twilight 6:25 AM CST 6:40 PM CST
Astronomical Twilight 5:55 AM CST 7:10 PM CST
Moon 6:33 PM CST (1/27) 7:20 AM CST (1/27)
Length of Visible Light 11h 12m
Length of Day
10h 18m
Full, 100% of the Moon is Illuminated
Jan 27
Full
Feb 3
Last Quarter
Feb 10
New
Feb 17
First Quarter
Feb 25
Full

Hourly Weather History & Observations

Time (CST) Temp. Windchill Dew Point Humidity Pressure Visibility Wind Dir Wind Speed Gust Speed Precip Events Conditions
12:15 AM 44.6 °F 39.2 °F 32.0 °F 61% 30.13 in 10.0 mi SE 10.4 mph - N/A   Mostly Cloudy
12:35 AM 44.6 °F 39.7 °F 33.8 °F 66% 30.12 in 10.0 mi SE 9.2 mph - N/A   Overcast
12:55 AM 44.6 °F 39.7 °F 33.8 °F 66% 30.11 in 10.0 mi SE 9.2 mph - N/A   Overcast
1:15 AM 44.6 °F 39.7 °F 35.6 °F 71% 30.11 in 10.0 mi SE 9.2 mph - N/A   Overcast
1:35 AM 44.6 °F 40.2 °F 35.6 °F 71% 30.11 in 10.0 mi SE 8.1 mph - N/A   Overcast
1:55 AM 44.6 °F 40.7 °F 35.6 °F 71% 30.10 in 10.0 mi SE 6.9 mph - N/A   Overcast
2:15 AM 44.6 °F 40.2 °F 37.4 °F 76% 30.10 in 10.0 mi SE 8.1 mph - N/A   Overcast
2:35 AM 44.6 °F 39.7 °F 37.4 °F 76% 30.10 in 10.0 mi SE 9.2 mph - N/A   Overcast
2:55 AM 44.6 °F 39.7 °F 37.4 °F 76% 30.10 in 10.0 mi SE 9.2 mph 16.1 mph N/A   Overcast
3:15 AM 44.6 °F 40.2 °F 37.4 °F 76% 30.09 in 10.0 mi SE 8.1 mph 16.1 mph N/A   Overcast
3:35 AM 44.6 °F 39.2 °F 37.4 °F 76% 30.07 in 10.0 mi SE 10.4 mph - N/A   Overcast
3:55 AM 44.6 °F 39.2 °F 37.4 °F 76% 30.07 in 10.0 mi SE 10.4 mph 17.3 mph N/A   Overcast
4:15 AM 44.6 °F 40.2 °F 37.4 °F 76% 30.07 in 10.0 mi SE 8.1 mph - N/A   Overcast
4:35 AM 44.6 °F 40.2 °F 39.2 °F 81% 30.06 in 10.0 mi SSE 8.1 mph - N/A   Overcast
4:55 AM 44.6 °F 39.2 °F 39.2 °F 81% 30.06 in 10.0 mi SE 10.4 mph - N/A   Overcast
5:15 AM 46.4 °F 41.5 °F 41.0 °F 81% 30.05 in 10.0 mi SE 10.4 mph - N/A   Overcast
5:35 AM 46.4 °F 41.5 °F 41.0 °F 81% 30.05 in 10.0 mi SSE 10.4 mph 17.3 mph N/A   Overcast
5:55 AM 46.4 °F 42.4 °F 41.0 °F 81% 30.05 in 10.0 mi SE 8.1 mph - N/A   Overcast
6:15 AM 46.4 °F 40.7 °F 41.0 °F 81% 30.05 in 10.0 mi SSE 12.7 mph 17.3 mph N/A   Overcast
6:35 AM 46.4 °F 41.1 °F 42.8 °F 87% 30.05 in 10.0 mi SSE 11.5 mph 16.1 mph N/A   Overcast
6:55 AM 46.4 °F 41.1 °F 42.8 °F 87% 30.06 in 10.0 mi SSE 11.5 mph 18.4 mph N/A   Overcast
7:15 AM 46.4 °F 41.9 °F 42.8 °F 87% 30.06 in 10.0 mi SSE 9.2 mph 17.3 mph N/A   Overcast
7:35 AM 46.4 °F 41.1 °F 42.8 °F 87% 30.05 in 10.0 mi SSE 11.5 mph 17.3 mph N/A   Overcast
7:55 AM 46.4 °F 41.1 °F 42.8 °F 87% 30.05 in 10.0 mi SE 11.5 mph 16.1 mph N/A   Overcast
8:15 AM 46.4 °F 41.9 °F 44.6 °F 93% 30.07 in 10.0 mi SSE 9.2 mph 16.1 mph N/A   Overcast
8:35 AM 48.2 °F - 44.6 °F 87% 30.06 in 10.0 mi SSE 10.4 mph 16.1 mph N/A   Overcast
8:55 AM 48.2 °F - 44.6 °F 87% 30.07 in 10.0 mi South 13.8 mph 17.3 mph N/A   Overcast
9:15 AM 50.0 °F - 46.4 °F 87% 30.06 in 10.0 mi SSE 15.0 mph - N/A   Overcast
9:35 AM 50.0 °F - 46.4 °F 87% 30.06 in 10.0 mi SSE 10.4 mph 16.1 mph N/A   Overcast
9:55 AM 50.0 °F - 46.4 °F 87% 30.07 in 10.0 mi SSE 8.1 mph - N/A   Overcast
10:15 AM 50.0 °F - 46.4 °F 87% 30.07 in 10.0 mi SE 8.1 mph - N/A   Overcast
10:35 AM 50.0 °F - 46.4 °F 87% 30.06 in 10.0 mi SE 6.9 mph - N/A   Overcast
10:55 AM 51.8 °F - 48.2 °F 88% 30.06 in 10.0 mi SE 9.2 mph 19.6 mph N/A   Overcast
11:15 AM 51.8 °F - 48.2 °F 88% 30.05 in 10.0 mi SSE 6.9 mph - N/A   Overcast
11:35 AM 51.8 °F - 50.0 °F 94% 30.04 in 10.0 mi SSE 9.2 mph 16.1 mph N/A   Overcast
11:55 AM 53.6 °F - 50.0 °F 88% 30.03 in 10.0 mi SSE 15.0 mph 19.6 mph N/A   Overcast
12:15 PM 53.6 °F - 50.0 °F 88% 30.01 in 10.0 mi SSE 13.8 mph 19.6 mph N/A   Overcast
12:35 PM 53.6 °F - 50.0 °F 88% 30.00 in 10.0 mi SSE 11.5 mph 19.6 mph N/A   Overcast
12:55 PM 53.6 °F - 50.0 °F 88% 30.00 in 10.0 mi SSE 8.1 mph - N/A   Overcast
1:15 PM 55.4 °F - 50.0 °F 82% 30.00 in 10.0 mi South 12.7 mph 23.0 mph N/A   Overcast
1:35 PM 55.4 °F - 50.0 °F 82% 29.99 in 10.0 mi South 13.8 mph 23.0 mph N/A   Overcast
1:55 PM 55.4 °F - 50.0 °F 82% 29.97 in 10.0 mi South 11.5 mph 20.7 mph N/A   Overcast
2:15 PM 55.4 °F - 51.8 °F 88% 29.97 in 10.0 mi South 11.5 mph 20.7 mph N/A   Overcast
2:35 PM 55.4 °F - 51.8 °F 88% 29.96 in 10.0 mi South 12.7 mph 19.6 mph N/A   Overcast
2:55 PM 55.4 °F - 51.8 °F 88% 29.96 in 10.0 mi SSE 9.2 mph 19.6 mph N/A   Overcast
3:15 PM 55.4 °F - 51.8 °F 88% 29.96 in 10.0 mi SSE 11.5 mph - N/A   Overcast
3:35 PM 55.4 °F - 51.8 °F 88% 29.95 in 10.0 mi SSE 11.5 mph 19.6 mph N/A   Overcast
3:55 PM 55.4 °F - 51.8 °F 88% 29.95 in 10.0 mi South 13.8 mph 23.0 mph N/A   Overcast
4:15 PM 55.4 °F - 51.8 °F 88% 29.95 in 10.0 mi SSE 11.5 mph 20.7 mph N/A   Overcast
4:35 PM 57.2 °F - 51.8 °F 82% 29.95 in 10.0 mi South 11.5 mph 20.7 mph N/A   Overcast
4:55 PM 55.4 °F - 51.8 °F 88% 29.95 in 10.0 mi South 10.4 mph 18.4 mph N/A   Overcast
5:15 PM 55.4 °F - 51.8 °F 88% 29.95 in 10.0 mi South 9.2 mph 19.6 mph N/A   Overcast
5:35 PM 55.4 °F - 51.8 °F 88% 29.95 in 10.0 mi South 9.2 mph 16.1 mph N/A   Overcast
5:55 PM 55.4 °F - 51.8 °F 88% 29.95 in 10.0 mi SSE 9.2 mph 16.1 mph N/A   Overcast
6:15 PM 55.4 °F - 51.8 °F 88% 29.95 in 10.0 mi SSE 9.2 mph - N/A   Overcast
6:35 PM 55.4 °F - 51.8 °F 88% 29.95 in 10.0 mi SSE 11.5 mph 17.3 mph N/A   Overcast
6:55 PM 55.4 °F - 53.6 °F 94% 29.95 in 10.0 mi SSE 12.7 mph 19.6 mph N/A   Overcast
7:15 PM 57.2 °F - 53.6 °F 88% 29.95 in 10.0 mi SSE 15.0 mph 21.9 mph N/A   Overcast
7:35 PM 57.2 °F - 53.6 °F 88% 29.95 in 10.0 mi SSE 11.5 mph 17.3 mph N/A   Overcast
7:55 PM 57.2 °F - 53.6 °F 88% 29.95 in 10.0 mi SE 6.9 mph - N/A   Overcast
8:15 PM 57.2 °F - 53.6 °F 88% 29.95 in 10.0 mi SSE 6.9 mph - N/A   Overcast
8:35 PM 57.2 °F - 53.6 °F 88% 29.95 in 10.0 mi SSE 12.7 mph 19.6 mph N/A   Mostly Cloudy
8:55 PM 57.2 °F - 53.6 °F 88% 29.94 in 10.0 mi SSE 8.1 mph - N/A   Scattered Clouds
9:15 PM 55.4 °F - 53.6 °F 94% 29.94 in 10.0 mi SSE 8.1 mph - N/A   Clear
9:35 PM 55.4 °F - 53.6 °F 94% 29.94 in 10.0 mi SE 8.1 mph - N/A   Clear
9:55 PM 55.4 °F - 53.6 °F 94% 29.94 in 10.0 mi SE 6.9 mph - N/A   Clear
10:15 PM 55.4 °F - 53.6 °F 94% 29.94 in 10.0 mi SE 5.8 mph - N/A   Clear
10:35 PM 55.4 °F - 53.6 °F 94% 29.94 in 10.0 mi SE 5.8 mph - N/A   Scattered Clouds
10:55 PM 55.4 °F - 53.6 °F 94% 29.94 in 10.0 mi ESE 5.8 mph - N/A   Scattered Clouds
11:15 PM 55.4 °F - 53.6 °F 94% 29.95 in 10.0 mi Calm Calm - N/A   Scattered Clouds
11:35 PM 53.6 °F - 51.8 °F 94% 29.95 in 10.0 mi Calm Calm - N/A   Mostly Cloudy
11:55 PM 53.6 °F - 51.8 °F 94% 29.95 in 10.0 mi Calm Calm - N/A   Mostly Cloudy